Time;durP1;ratioP1;P1;durP2;ratioP2;P2;SDS_P1;SDS_P2;PMS_P1;PMS_P2;Temp;Humidity;BMP_temperature;BMP_pressure;BME280_temperature;BME280_humidity;BME280_pressure;Samples;Min_cycle;Max_cycle;Signal;HPM_P1;HPM_P2
2023/12/26 00:02:14;;;;;;;1.30;1.20;;;;;;;;;;5054190;28;20633;-73
2023/12/26 00:04:41;;;;;;;1.27;1.17;;;;;;;;;;5056998;28;20468;-71
2023/12/26 00:07:07;;;;;;;1.30;1.20;;;;;;;;;;5065113;28;20453;-71
2023/12/26 00:09:38;;;;;;;1.30;1.20;;;;;;;;;;5071805;28;21035;-72
2023/12/26 00:12:05;;;;;;;1.70;1.60;;;;;;;;;;5068822;28;20468;-71
2023/12/26 00:14:32;;;;;;;1.70;1.60;;;;;;;;;;5074608;28;20502;-68
2023/12/26 00:16:58;;;;;;;2.50;1.60;;;;;;;;;;5070351;28;20457;-73
2023/12/26 00:19:24;;;;;;;1.70;1.60;;;;;;;;;;5074439;28;20479;-74
2023/12/26 00:21:51;;;;;;;1.80;1.70;;;;;;;;;;5071593;28;20456;-70
2023/12/26 00:24:17;;;;;;;1.90;1.80;;;;;;;;;;5065911;28;20457;-70
2023/12/26 00:26:45;;;;;;;1.73;1.63;;;;;;;;;;5068868;28;20456;-71
2023/12/26 00:29:12;;;;;;;1.60;1.50;;;;;;;;;;5076250;28;20507;-73
2023/12/26 00:31:39;;;;;;;1.87;1.77;;;;;;;;;;5070785;28;21080;-76
2023/12/26 00:34:06;;;;;;;1.83;1.73;;;;;;;;;;5075297;28;20601;-70
2023/12/26 00:36:33;;;;;;;1.63;1.53;;;;;;;;;;5065291;28;20460;-68
2023/12/26 00:38:59;;;;;;;1.30;1.20;;;;;;;;;;5065556;28;20504;-69
2023/12/26 00:41:25;;;;;;;1.73;1.63;;;;;;;;;;5075337;28;20453;-68
2023/12/26 00:43:54;;;;;;;1.67;1.57;;;;;;;;;;5073220;28;20452;-68
2023/12/26 00:46:20;;;;;;;1.90;1.70;;;;;;;;;;5071579;28;20444;-70
2023/12/26 00:48:47;;;;;;;2.10;2.00;;;;;;;;;;5068018;28;20452;-69
2023/12/26 00:51:13;;;;;;;2.03;1.93;;;;;;;;;;5069948;28;20455;-69
2023/12/26 00:53:40;;;;;;;2.17;1.97;;;;;;;;;;5067811;28;20460;-69
2023/12/26 00:56:07;;;;;;;2.00;1.90;;;;;;;;;;5072278;28;20458;-69
2023/12/26 00:58:34;;;;;;;4.90;2.20;;;;;;;;;;5067753;28;20748;-69
2023/12/26 01:01:02;;;;;;;2.50;2.33;;;;;;;;;;5067846;28;20486;-69
2023/12/26 01:03:28;;;;;;;2.40;2.20;;;;;;;;;;5065066;28;20489;-70
2023/12/26 01:05:55;;;;;;;2.10;2.00;;;;;;;;;;5052200;28;20481;-68
2023/12/26 01:08:21;;;;;;;2.40;2.20;;;;;;;;;;5047240;28;20436;-68
2023/12/26 01:10:50;;;;;;;2.50;2.27;;;;;;;;;;5046725;28;20487;-68
2023/12/26 01:13:16;;;;;;;2.10;2.00;;;;;;;;;;5046819;28;20778;-67
2023/12/26 01:15:43;;;;;;;1.80;1.70;;;;;;;;;;5047056;28;20445;-67
2023/12/26 01:18:10;;;;;;;1.53;1.43;;;;;;;;;;5050673;28;20484;-69
2023/12/26 01:20:37;;;;;;;1.63;1.53;;;;;;;;;;5047562;28;20461;-69
2023/12/26 01:23:03;;;;;;;1.90;1.70;;;;;;;;;;5052967;28;20484;-69
2023/12/26 01:25:30;;;;;;;1.73;1.40;;;;;;;;;;5047750;28;20805;-69
2023/12/26 01:27:56;;;;;;;1.50;1.40;;;;;;;;;;5049575;28;20544;-70
2023/12/26 01:30:23;;;;;;;1.30;1.20;;;;;;;;;;5050013;28;20477;-69
2023/12/26 01:32:49;;;;;;;1.90;1.27;;;;;;;;;;5053298;28;21108;-70
2023/12/26 01:35:17;;;;;;;1.87;1.77;;;;;;;;;;5049239;28;20448;-70
2023/12/26 01:37:45;;;;;;;1.77;1.67;;;;;;;;;;5053074;28;20541;-69
2023/12/26 01:40:11;;;;;;;1.40;1.27;;;;;;;;;;5050107;28;20500;-69
2023/12/26 01:42:38;;;;;;;0.87;0.87;;;;;;;;;;5050290;28;20920;-68
2023/12/26 01:45:04;;;;;;;1.40;1.30;;;;;;;;;;5046090;28;20947;-68
2023/12/26 01:47:31;;;;;;;1.30;1.20;;;;;;;;;;5054680;28;20444;-68
2023/12/26 01:49:57;;;;;;;1.40;1.30;;;;;;;;;;5054982;28;20631;-69
2023/12/26 01:52:25;;;;;;;1.50;1.40;;;;;;;;;;5043709;28;20876;-69
2023/12/26 01:54:52;;;;;;;1.70;1.60;;;;;;;;;;5050226;28;20452;-69
2023/12/26 01:57:18;;;;;;;1.17;1.17;;;;;;;;;;5053925;28;20459;-69
2023/12/26 01:59:45;;;;;;;1.43;1.33;;;;;;;;;;5052548;28;20433;-69
2023/12/26 02:02:12;;;;;;;1.77;1.67;;;;;;;;;;5048771;28;20498;-68
2023/12/26 02:04:38;;;;;;;2.00;1.80;;;;;;;;;;5052698;28;20465;-67
2023/12/26 02:07:06;;;;;;;1.80;1.67;;;;;;;;;;5059230;28;20456;-70
2023/12/26 02:09:35;;;;;;;1.70;1.60;;;;;;;;;;5056780;28;20456;-70
2023/12/26 02:12:02;;;;;;;1.70;1.60;;;;;;;;;;5052806;28;20482;-70
2023/12/26 02:14:28;;;;;;;2.10;2.00;;;;;;;;;;5058363;28;20457;-69
2023/12/26 02:16:55;;;;;;;1.97;1.87;;;;;;;;;;5055643;28;20483;-70
2023/12/26 02:19:21;;;;;;;1.87;1.77;;;;;;;;;;5045900;28;20539;-69
2023/12/26 02:21:48;;;;;;;1.97;1.87;;;;;;;;;;5052815;28;20441;-69
2023/12/26 02:24:16;;;;;;;1.50;1.40;;;;;;;;;;5055590;28;20480;-70
2023/12/26 02:26:42;;;;;;;1.73;1.63;;;;;;;;;;5053790;28;20448;-70
2023/12/26 02:29:10;;;;;;;2.77;1.80;;;;;;;;;;5055268;28;20437;-69
2023/12/26 02:31:38;;;;;;;1.97;1.87;;;;;;;;;;5056303;28;20444;-70
2023/12/26 02:34:04;;;;;;;1.70;1.60;;;;;;;;;;5056944;28;20465;-70
2023/12/26 02:36:31;;;;;;;1.63;1.53;;;;;;;;;;5054895;28;20449;-70
2023/12/26 02:38:57;;;;;;;1.77;1.67;;;;;;;;;;5053609;28;21088;-70
2023/12/26 02:41:25;;;;;;;2.10;1.70;;;;;;;;;;5055558;28;20449;-69
2023/12/26 02:43:51;;;;;;;1.60;1.50;;;;;;;;;;5057960;28;20563;-70
2023/12/26 02:46:18;;;;;;;1.17;1.17;;;;;;;;;;5051358;28;20496;-69
2023/12/26 02:48:44;;;;;;;1.37;1.27;;;;;;;;;;5050277;28;20534;-69
2023/12/26 02:51:11;;;;;;;1.43;1.30;;;;;;;;;;5056777;28;20497;-69
2023/12/26 02:53:37;;;;;;;1.30;1.20;;;;;;;;;;5053827;28;20452;-70
2023/12/26 02:56:04;;;;;;;1.87;1.30;;;;;;;;;;5053726;28;20449;-69
2023/12/26 02:58:32;;;;;;;1.27;1.17;;;;;;;;;;5052568;28;20816;-70
2023/12/26 03:00:58;;;;;;;1.33;1.23;;;;;;;;;;5047043;28;20560;-70
2023/12/26 03:03:25;;;;;;;1.30;1.20;;;;;;;;;;5057716;28;20991;-70
2023/12/26 03:05:51;;;;;;;1.10;1.10;;;;;;;;;;5068682;28;20548;-70
2023/12/26 03:08:18;;;;;;;1.13;1.03;;;;;;;;;;5071874;28;20504;-70
2023/12/26 03:10:44;;;;;;;1.10;1.10;;;;;;;;;;5072961;28;20457;-70
2023/12/26 03:13:12;;;;;;;1.07;0.93;;;;;;;;;;5078297;28;20487;-71
2023/12/26 03:15:40;;;;;;;0.90;0.90;;;;;;;;;;5075624;28;20445;-70
2023/12/26 03:18:07;;;;;;;1.10;1.10;;;;;;;;;;5076629;28;20526;-70
2023/12/26 03:20:33;;;;;;;0.97;0.97;;;;;;;;;;5077701;28;20990;-70
2023/12/26 03:23:00;;;;;;;1.03;1.03;;;;;;;;;;5067999;28;20968;-69
2023/12/26 03:25:26;;;;;;;1.10;1.10;;;;;;;;;;5078174;28;20444;-69
2023/12/26 03:27:52;;;;;;;1.30;1.17;;;;;;;;;;5073653;28;20444;-67
2023/12/26 03:30:19;;;;;;;1.40;1.30;;;;;;;;;;5068523;28;20437;-69
2023/12/26 03:32:47;;;;;;;1.50;1.40;;;;;;;;;;5072632;28;20985;-67
2023/12/26 03:35:14;;;;;;;1.90;1.80;;;;;;;;;;5067162;28;20891;-68
2023/12/26 03:37:40;;;;;;;2.10;2.00;;;;;;;;;;5074894;28;20467;-67
2023/12/26 03:40:07;;;;;;;2.00;1.90;;;;;;;;;;5074187;28;20476;-69
2023/12/26 03:42:34;;;;;;;2.30;2.10;;;;;;;;;;5073306;28;20461;-68
2023/12/26 03:45:00;;;;;;;2.07;1.93;;;;;;;;;;5072297;28;20448;-68
2023/12/26 03:47:27;;;;;;;2.77;2.53;;;;;;;;;;5070144;28;20467;-68
2023/12/26 03:49:54;;;;;;;2.53;2.33;;;;;;;;;;5074665;28;20444;-68
2023/12/26 03:52:21;;;;;;;1.73;1.63;;;;;;;;;;5076036;28;20444;-69
2023/12/26 03:54:47;;;;;;;1.57;1.47;;;;;;;;;;5070591;28;20451;-68
2023/12/26 03:57:14;;;;;;;1.80;1.70;;;;;;;;;;5075447;28;20815;-69
2023/12/26 03:59:40;;;;;;;1.83;1.73;;;;;;;;;;5075912;28;20470;-71
2023/12/26 04:02:07;;;;;;;1.93;1.70;;;;;;;;;;5076997;28;20443;-70
2023/12/26 04:04:33;;;;;;;2.13;2.03;;;;;;;;;;5074599;28;20486;-71
2023/12/26 04:07:01;;;;;;;2.30;2.20;;;;;;;;;;5053652;28;20448;-70
2023/12/26 04:09:27;;;;;;;1.87;1.77;;;;;;;;;;5049117;28;20441;-69
2023/12/26 04:11:54;;;;;;;1.77;1.67;;;;;;;;;;5054068;28;20522;-68
2023/12/26 04:14:20;;;;;;;2.23;2.13;;;;;;;;;;5052110;28;20448;-69
2023/12/26 04:16:46;;;;;;;2.03;1.87;;;;;;;;;;5050598;28;20808;-70
2023/12/26 04:19:13;;;;;;;1.83;1.73;;;;;;;;;;5056127;28;20508;-70
2023/12/26 04:21:39;;;;;;;2.17;1.93;;;;;;;;;;5056191;28;20483;-69
2023/12/26 04:24:07;;;;;;;1.70;1.60;;;;;;;;;;5053497;28;20496;-69
2023/12/26 04:26:36;;;;;;;1.47;1.30;;;;;;;;;;5048620;28;20453;-70
2023/12/26 04:29:02;;;;;;;1.20;1.10;;;;;;;;;;5049956;28;20449;-69
2023/12/26 04:31:28;;;;;;;1.00;0.90;;;;;;;;;;5051351;28;20468;-71
2023/12/26 04:33:55;;;;;;;1.00;1.00;;;;;;;;;;5056395;28;20638;-70
2023/12/26 04:36:21;;;;;;;0.83;0.83;;;;;;;;;;5048885;28;20462;-69
2023/12/26 04:38:48;;;;;;;0.70;0.70;;;;;;;;;;5053875;28;20500;-68
2023/12/26 04:41:15;;;;;;;1.73;0.90;;;;;;;;;;5046697;28;20544;-68
2023/12/26 04:43:42;;;;;;;1.40;0.77;;;;;;;;;;5055661;28;21033;-68
2023/12/26 04:46:09;;;;;;;1.00;1.00;;;;;;;;;;5051706;28;20461;-70
2023/12/26 04:48:35;;;;;;;0.70;0.70;;;;;;;;;;5055933;28;20782;-70
2023/12/26 04:51:02;;;;;;;1.37;0.60;;;;;;;;;;5049590;28;20457;-70
2023/12/26 04:53:28;;;;;;;0.70;0.70;;;;;;;;;;5053023;28;20460;-70
2023/12/26 04:55:55;;;;;;;0.70;0.60;;;;;;;;;;5056136;28;20950;-69
2023/12/26 04:58:23;;;;;;;0.90;0.60;;;;;;;;;;5052755;28;20461;-69
2023/12/26 05:00:49;;;;;;;1.87;0.70;;;;;;;;;;5047010;28;20449;-70
2023/12/26 05:03:15;;;;;;;0.83;0.80;;;;;;;;;;5054365;28;21063;-69
2023/12/26 05:05:42;;;;;;;2.63;2.40;;;;;;;;;;5054972;28;20515;-69
2023/12/26 05:08:08;;;;;;;2.60;0.93;;;;;;;;;;5056630;28;20453;-69
2023/12/26 05:10:35;;;;;;;4.80;1.63;;;;;;;;;;5055054;28;20522;-70
2023/12/26 05:13:01;;;;;;;0.80;0.80;;;;;;;;;;5043479;28;20952;-70
2023/12/26 05:15:29;;;;;;;1.33;0.60;;;;;;;;;;5048406;28;20449;-70
2023/12/26 05:17:56;;;;;;;0.70;0.70;;;;;;;;;;5053170;28;20449;-69
2023/12/26 05:20:22;;;;;;;1.83;0.80;;;;;;;;;;5049105;28;20493;-67
2023/12/26 05:22:49;;;;;;;2.73;0.90;;;;;;;;;;5055759;28;20452;-67
2023/12/26 05:25:15;;;;;;;1.00;0.73;;;;;;;;;;5054734;28;20460;-67
2023/12/26 05:27:41;;;;;;;2.57;0.83;;;;;;;;;;5041847;28;20445;-69
2023/12/26 05:30:09;;;;;;;1.83;0.97;;;;;;;;;;5051725;28;20459;-68
2023/12/26 05:32:36;;;;;;;0.93;0.70;;;;;;;;;;5047533;28;20488;-69
2023/12/26 05:35:03;;;;;;;1.23;0.80;;;;;;;;;;5048679;28;20445;-69
2023/12/26 05:37:29;;;;;;;3.27;1.00;;;;;;;;;;5055950;28;20460;-69
2023/12/26 05:39:56;;;;;;;1.50;1.13;;;;;;;;;;5054623;28;20545;-68
2023/12/26 05:42:23;;;;;;;5.60;0.80;;;;;;;;;;5056300;28;20989;-70
2023/12/26 05:44:49;;;;;;;3.53;1.33;;;;;;;;;;5057271;28;20557;-70
2023/12/26 05:47:17;;;;;;;1.93;1.10;;;;;;;;;;5057052;28;20456;-68
2023/12/26 05:49:44;;;;;;;1.70;0.93;;;;;;;;;;5058062;28;20446;-68
2023/12/26 05:52:11;;;;;;;1.57;1.20;;;;;;;;;;5058121;28;20456;-68
2023/12/26 05:54:37;;;;;;;2.03;1.03;;;;;;;;;;5059287;28;20520;-68
2023/12/26 05:57:04;;;;;;;2.33;1.37;;;;;;;;;;5059565;28;20449;-68
2023/12/26 05:59:30;;;;;;;2.73;1.43;;;;;;;;;;5057014;28;20929;-69
2023/12/26 06:01:57;;;;;;;3.30;1.20;;;;;;;;;;5051946;28;20632;-68
2023/12/26 06:04:23;;;;;;;4.40;1.70;;;;;;;;;;5057734;28;20532;-68
2023/12/26 06:06:51;;;;;;;1.50;0.90;;;;;;;;;;5059367;28;20642;-68
2023/12/26 06:09:17;;;;;;;3.33;1.17;;;;;;;;;;5058684;28;20440;-69
2023/12/26 06:11:44;;;;;;;5.77;2.60;;;;;;;;;;5059322;28;20468;-69
2023/12/26 06:14:10;;;;;;;2.30;1.20;;;;;;;;;;5057702;28;20460;-69
2023/12/26 06:16:37;;;;;;;3.60;1.50;;;;;;;;;;5059177;28;20499;-69
2023/12/26 06:19:03;;;;;;;4.33;1.27;;;;;;;;;;5059195;28;20635;-67
2023/12/26 06:21:30;;;;;;;8.60;1.33;;;;;;;;;;5058686;28;20468;-67
2023/12/26 06:23:57;;;;;;;3.33;1.43;;;;;;;;;;5058793;28;20487;-68
2023/12/26 06:26:24;;;;;;;3.73;1.60;;;;;;;;;;5054473;28;20957;-68
2023/12/26 06:28:50;;;;;;;2.80;1.60;;;;;;;;;;5052060;28;20483;-68
2023/12/26 06:31:18;;;;;;;1.60;1.40;;;;;;;;;;5055062;28;20731;-70
2023/12/26 06:33:45;;;;;;;3.20;1.40;;;;;;;;;;5057607;28;20475;-70
2023/12/26 06:36:11;;;;;;;2.93;1.53;;;;;;;;;;5055935;28;20456;-69
2023/12/26 06:38:38;;;;;;;5.90;2.00;;;;;;;;;;5051975;28;20563;-69
2023/12/26 06:41:06;;;;;;;3.53;1.30;;;;;;;;;;5056434;28;20500;-69
2023/12/26 06:43:33;;;;;;;2.80;1.50;;;;;;;;;;5058127;28;20456;-67
2023/12/26 06:45:59;;;;;;;1.77;1.47;;;;;;;;;;5053987;28;20480;-67
2023/12/26 06:48:25;;;;;;;4.00;1.30;;;;;;;;;;5054076;28;20445;-69
2023/12/26 06:50:52;;;;;;;8.17;1.73;;;;;;;;;;5051574;28;20445;-68
2023/12/26 06:53:18;;;;;;;4.80;1.67;;;;;;;;;;5057500;28;20692;-67
2023/12/26 06:55:45;;;;;;;3.77;1.40;;;;;;;;;;5058883;28;20457;-69
2023/12/26 06:58:12;;;;;;;2.83;1.70;;;;;;;;;;5053494;28;20837;-69
2023/12/26 07:00:39;;;;;;;3.53;1.53;;;;;;;;;;5056901;28;20484;-69
2023/12/26 07:03:05;;;;;;;3.10;1.60;;;;;;;;;;5057660;28;20534;-68
2023/12/26 07:05:32;;;;;;;4.20;1.40;;;;;;;;;;5067443;28;20476;-69
2023/12/26 07:07:59;;;;;;;2.03;1.53;;;;;;;;;;5077647;28;20501;-69
2023/12/26 07:10:26;;;;;;;3.93;1.27;;;;;;;;;;5074710;28;20452;-68
2023/12/26 07:12:52;;;;;;;5.50;2.07;;;;;;;;;;5072019;28;20455;-69
2023/12/26 07:15:20;;;;;;;1.43;1.30;;;;;;;;;;5066829;28;20994;-68
2023/12/26 07:17:47;;;;;;;7.70;1.50;;;;;;;;;;5073334;28;20464;-67
2023/12/26 07:20:13;;;;;;;1.50;1.40;;;;;;;;;;5072909;28;20514;-68
2023/12/26 07:22:39;;;;;;;5.83;1.70;;;;;;;;;;5076351;28;21030;-69
2023/12/26 07:25:06;;;;;;;6.63;1.60;;;;;;;;;;5074442;28;20479;-69
2023/12/26 07:27:33;;;;;;;1.40;1.30;;;;;;;;;;5074972;28;20549;-68
2023/12/26 07:30:00;;;;;;;2.80;1.53;;;;;;;;;;5068770;28;20444;-68
2023/12/26 07:32:28;;;;;;;3.77;1.20;;;;;;;;;;5072725;28;20451;-68
2023/12/26 07:34:54;;;;;;;3.90;1.53;;;;;;;;;;5076298;28;20463;-68
2023/12/26 07:37:20;;;;;;;2.70;1.40;;;;;;;;;;5069815;28;20436;-70
2023/12/26 07:39:47;;;;;;;4.10;1.30;;;;;;;;;;5075457;28;20533;-71
2023/12/26 07:42:13;;;;;;;4.40;1.83;;;;;;;;;;5077888;28;20447;-70
2023/12/26 07:44:40;;;;;;;6.77;1.60;;;;;;;;;;5076914;28;20562;-70
2023/12/26 07:47:06;;;;;;;6.63;1.60;;;;;;;;;;5078202;28;20513;-71
2023/12/26 07:49:34;;;;;;;2.70;2.00;;;;;;;;;;5067083;28;20453;-69
2023/12/26 07:52:00;;;;;;;1.67;1.57;;;;;;;;;;5077166;28;20452;-70
2023/12/26 07:54:27;;;;;;;5.40;1.70;;;;;;;;;;5078046;28;20452;-71
2023/12/26 07:56:56;;;;;;;4.10;1.67;;;;;;;;;;5074211;28;20482;-71
2023/12/26 07:59:23;;;;;;;3.53;2.07;;;;;;;;;;5077683;28;20456;-69
2023/12/26 08:01:49;;;;;;;8.37;2.50;;;;;;;;;;5072103;28;20525;-71
2023/12/26 08:04:16;;;;;;;10.23;1.93;;;;;;;;;;5077082;28;20471;-70
2023/12/26 08:06:44;;;;;;;4.10;1.80;;;;;;;;;;5069406;28;20488;-70
2023/12/26 08:09:11;;;;;;;3.30;1.90;;;;;;;;;;5073998;28;20436;-70
2023/12/26 08:11:37;;;;;;;3.53;2.13;;;;;;;;;;5065131;28;20465;-67
2023/12/26 08:14:04;;;;;;;4.57;1.90;;;;;;;;;;5075909;28;20487;-68
2023/12/26 08:16:30;;;;;;;4.63;2.03;;;;;;;;;;5076685;28;20444;-70
2023/12/26 08:18:57;;;;;;;2.73;2.23;;;;;;;;;;5072011;28;20908;-70
2023/12/26 08:21:23;;;;;;;6.50;3.00;;;;;;;;;;5069330;28;21050;-70
2023/12/26 08:23:51;;;;;;;3.47;2.30;;;;;;;;;;5076556;28;20856;-72
2023/12/26 08:26:18;;;;;;;3.30;2.00;;;;;;;;;;5076930;28;20452;-69
2023/12/26 08:28:44;;;;;;;6.10;2.20;;;;;;;;;;5066445;28;20468;-70
2023/12/26 08:31:11;;;;;;;3.23;1.90;;;;;;;;;;5069056;28;20466;-70
2023/12/26 08:33:37;;;;;;;7.00;2.20;;;;;;;;;;5069174;28;20449;-69
2023/12/26 08:36:04;;;;;;;1.97;1.63;;;;;;;;;;5068337;28;20525;-68
2023/12/26 08:38:31;;;;;;;2.40;2.20;;;;;;;;;;5072739;28;20435;-69
2023/12/26 08:40:58;;;;;;;3.40;2.20;;;;;;;;;;5070308;28;20483;-70
2023/12/26 08:43:25;;;;;;;4.70;2.37;;;;;;;;;;5071110;28;20456;-67
2023/12/26 08:45:51;;;;;;;2.77;2.43;;;;;;;;;;5069291;28;20453;-69
2023/12/26 08:48:18;;;;;;;3.27;2.27;;;;;;;;;;5069778;28;20439;-69
2023/12/26 08:50:44;;;;;;;4.07;2.77;;;;;;;;;;5066620;28;20475;-69
2023/12/26 08:53:11;;;;;;;6.07;2.40;;;;;;;;;;5068758;28;20452;-68
2023/12/26 08:55:37;;;;;;;7.73;3.03;;;;;;;;;;5066571;28;20475;-70
2023/12/26 08:58:05;;;;;;;7.17;2.63;;;;;;;;;;5072291;28;20470;-69
2023/12/26 09:00:31;;;;;;;3.63;2.20;;;;;;;;;;5075771;28;20491;-70
2023/12/26 09:02:58;;;;;;;6.00;3.13;;;;;;;;;;5075102;28;20502;-69
2023/12/26 09:05:24;;;;;;;10.03;3.20;;;;;;;;;;5073548;28;20487;-70
2023/12/26 09:07:50;;;;;;;6.77;3.30;;;;;;;;;;5070440;28;20749;-71
2023/12/26 09:10:17;;;;;;;3.33;3.03;;;;;;;;;;5070779;28;20477;-68
2023/12/26 09:12:43;;;;;;;4.13;3.27;;;;;;;;;;5062868;28;21004;-70
2023/12/26 09:15:11;;;;;;;7.00;4.00;;;;;;;;;;5071701;28;20454;-69
2023/12/26 09:17:38;;;;;;;5.57;2.83;;;;;;;;;;5072265;28;20460;-70
2023/12/26 09:20:04;;;;;;;14.47;3.20;;;;;;;;;;5072054;28;20521;-70
2023/12/26 09:22:31;;;;;;;4.40;3.33;;;;;;;;;;5076581;28;20448;-69
2023/12/26 09:24:57;;;;;;;5.00;3.20;;;;;;;;;;5073522;28;20452;-70
2023/12/26 09:27:24;;;;;;;4.37;3.13;;;;;;;;;;5075827;28;20626;-69
2023/12/26 09:29:50;;;;;;;3.20;2.90;;;;;;;;;;5076254;28;20516;-70
2023/12/26 09:32:18;;;;;;;3.80;3.50;;;;;;;;;;5061131;28;20480;-68
2023/12/26 09:34:44;;;;;;;7.67;2.97;;;;;;;;;;5075489;28;20491;-70
2023/12/26 09:37:11;;;;;;;8.30;3.30;;;;;;;;;;5067418;28;20500;-69
2023/12/26 09:39:37;;;;;;;12.00;4.53;;;;;;;;;;5070774;28;21236;-70
2023/12/26 09:42:04;;;;;;;4.03;2.90;;;;;;;;;;5066445;28;20449;-71
2023/12/26 09:44:31;;;;;;;7.53;3.43;;;;;;;;;;5069372;28;20515;-69
2023/12/26 09:46:58;;;;;;;10.00;3.50;;;;;;;;;;5074514;28;20466;-69
2023/12/26 09:49:26;;;;;;;3.77;3.47;;;;;;;;;;5067950;28;20494;-69
2023/12/26 09:51:52;;;;;;;6.03;3.63;;;;;;;;;;5070050;28;20448;-70
2023/12/26 09:54:21;;;;;;;11.10;4.30;;;;;;;;;;5067951;28;20552;-69
2023/12/26 09:56:48;;;;;;;9.57;3.30;;;;;;;;;;5069470;28;20726;-71
2023/12/26 09:59:15;;;;;;;11.53;4.53;;;;;;;;;;5067407;28;20478;-69
2023/12/26 10:01:43;;;;;;;6.40;4.90;;;;;;;;;;5065588;28;20476;-70
2023/12/26 10:04:09;;;;;;;5.40;3.17;;;;;;;;;;5066195;28;20460;-73
2023/12/26 10:06:37;;;;;;;7.57;3.70;;;;;;;;;;5069616;28;20495;-77
2023/12/26 10:09:04;;;;;;;4.90;3.10;;;;;;;;;;5069958;28;20440;-78
2023/12/26 10:11:32;;;;;;;5.80;3.67;;;;;;;;;;5071845;28;20454;-77
2023/12/26 10:13:59;;;;;;;6.83;3.00;;;;;;;;;;5063535;28;20460;-77
2023/12/26 10:16:25;;;;;;;5.70;3.17;;;;;;;;;;5072162;28;20432;-77
2023/12/26 10:18:52;;;;;;;6.60;3.23;;;;;;;;;;5068837;28;20506;-77
2023/12/26 10:21:18;;;;;;;5.53;3.57;;;;;;;;;;5073909;28;20491;-76
2023/12/26 10:23:46;;;;;;;8.10;3.33;;;;;;;;;;5072539;28;20513;-77
2023/12/26 10:26:13;;;;;;;9.60;3.17;;;;;;;;;;5077099;28;20458;-76
2023/12/26 10:28:41;;;;;;;10.30;3.97;;;;;;;;;;5075969;28;20455;-77
2023/12/26 10:31:10;;;;;;;5.27;3.57;;;;;;;;;;5073773;28;20656;-72
2023/12/26 10:33:37;;;;;;;6.40;4.00;;;;;;;;;;5078116;28;20460;-73
2023/12/26 10:36:04;;;;;;;6.80;4.40;;;;;;;;;;5077179;28;20574;-74
2023/12/26 10:38:31;;;;;;;7.03;2.90;;;;;;;;;;5073038;28;20440;-74
2023/12/26 10:41:00;;;;;;;8.33;7.43;;;;;;;;;;5077847;28;20485;-73
2023/12/26 10:43:27;;;;;;;5.47;3.10;;;;;;;;;;5072875;28;20456;-73
2023/12/26 10:45:55;;;;;;;6.63;2.83;;;;;;;;;;5077925;28;20697;-74
2023/12/26 10:48:22;;;;;;;7.90;3.17;;;;;;;;;;5079125;28;20477;-74
2023/12/26 10:50:49;;;;;;;10.40;3.17;;;;;;;;;;5077067;28;20468;-73
2023/12/26 10:53:17;;;;;;;6.87;3.07;;;;;;;;;;5069461;28;20456;-74
2023/12/26 10:55:45;;;;;;;6.57;3.90;;;;;;;;;;5073972;28;20455;-74
2023/12/26 10:58:23;;;;;;;6.80;3.40;;;;;;;;;;5071268;28;20460;-73
2023/12/26 11:00:50;;;;;;;5.67;3.30;;;;;;;;;;5071473;28;20476;-74
2023/12/26 13:51:24;;;;;;;5.90;3.60;;;;;;;;;;5054928;28;20542;-72
2023/12/26 13:53:51;;;;;;;7.53;4.47;;;;;;;;;;5054977;28;20481;-72
2023/12/26 13:56:19;;;;;;;11.23;4.80;;;;;;;;;;5049410;28;20472;-82
2023/12/26 13:58:45;;;;;;;9.20;4.60;;;;;;;;;;5056199;28;20483;-81
2023/12/26 14:01:11;;;;;;;10.50;5.17;;;;;;;;;;5058055;28;20545;-83
2023/12/26 14:03:38;;;;;;;13.33;5.30;;;;;;;;;;5053781;28;20448;-82
2023/12/26 14:06:05;;;;;;;4.97;4.50;;;;;;;;;;5069368;28;20487;-82
2023/12/26 14:08:31;;;;;;;12.03;5.50;;;;;;;;;;5079934;28;20486;-82
2023/12/26 14:10:59;;;;;;;10.43;5.13;;;;;;;;;;5072922;28;20535;-82
2023/12/26 14:13:26;;;;;;;6.63;4.87;;;;;;;;;;5070127;28;20560;-82
2023/12/26 14:15:52;;;;;;;6.23;5.63;;;;;;;;;;5075231;28;20520;-81
2023/12/26 14:18:18;;;;;;;6.23;5.63;;;;;;;;;;5070599;28;20542;-81
2023/12/26 14:20:45;;;;;;;5.77;5.27;;;;;;;;;;5076266;28;20487;-82
2023/12/26 14:23:11;;;;;;;10.27;5.40;;;;;;;;;;5074103;28;20452;-81
2023/12/26 14:25:38;;;;;;;7.90;4.80;;;;;;;;;;5077518;28;20458;-81
2023/12/26 14:28:06;;;;;;;7.47;5.83;;;;;;;;;;5079562;28;20523;-82
2023/12/26 14:30:32;;;;;;;9.17;4.80;;;;;;;;;;5076912;28;20459;-81
2023/12/26 14:32:58;;;;;;;6.50;5.63;;;;;;;;;;5077933;28;20447;-81
2023/12/26 14:35:25;;;;;;;7.47;5.23;;;;;;;;;;5078348;28;20448;-82
2023/12/26 14:37:51;;;;;;;9.70;4.00;;;;;;;;;;5078558;28;20543;-81
2023/12/26 14:40:18;;;;;;;4.93;4.27;;;;;;;;;;5074621;28;20566;-81
2023/12/26 14:42:44;;;;;;;5.97;4.13;;;;;;;;;;5074945;28;20535;-82
2023/12/26 14:45:12;;;;;;;13.73;5.20;;;;;;;;;;5077508;28;20494;-82
2023/12/26 14:47:38;;;;;;;7.37;4.27;;;;;;;;;;5075395;28;20452;-81
2023/12/26 14:50:05;;;;;;;5.77;4.43;;;;;;;;;;5075434;28;20496;-81
2023/12/26 14:52:31;;;;;;;7.57;5.40;;;;;;;;;;5077949;28;20484;-81
2023/12/26 14:54:57;;;;;;;5.30;4.60;;;;;;;;;;5072937;28;20933;-81
2023/12/26 14:57:24;;;;;;;7.37;4.80;;;;;;;;;;5073690;28;20448;-81
2023/12/26 14:59:50;;;;;;;8.40;7.43;;;;;;;;;;5070686;28;20516;-82
2023/12/26 15:02:29;;;;;;;9.50;4.40;;;;;;;;;;5067799;28;20481;-81
2023/12/26 15:04:55;;;;;;;15.43;5.40;;;;;;;;;;5068988;28;20471;-81
2023/12/26 15:07:22;;;;;;;5.67;5.17;;;;;;;;;;5078358;28;20812;-82
2023/12/26 15:09:48;;;;;;;7.03;4.80;;;;;;;;;;5076526;28;20459;-82
2023/12/26 15:12:15;;;;;;;5.87;5.30;;;;;;;;;;5076607;28;20448;-82
2023/12/26 15:14:41;;;;;;;8.87;5.30;;;;;;;;;;5077428;28;20456;-81
2023/12/26 15:17:08;;;;;;;7.07;4.97;;;;;;;;;;5072854;28;20464;-82
2023/12/26 15:19:36;;;;;;;5.60;3.97;;;;;;;;;;5075815;28;20495;-82
2023/12/26 15:22:04;;;;;;;4.53;4.10;;;;;;;;;;5076009;28;20495;-82
2023/12/26 15:24:31;;;;;;;7.93;4.13;;;;;;;;;;5075753;28;20452;-81
2023/12/26 15:26:57;;;;;;;5.07;3.60;;;;;;;;;;5075521;28;20824;-81
2023/12/26 15:29:24;;;;;;;5.23;3.67;;;;;;;;;;5078198;28;20460;-81
2023/12/26 15:31:51;;;;;;;13.30;4.10;;;;;;;;;;5076020;28;20497;-81
2023/12/26 15:34:18;;;;;;;5.53;4.50;;;;;;;;;;5076877;28;20971;-81
2023/12/26 15:36:45;;;;;;;7.67;4.80;;;;;;;;;;5077811;28;20497;-81
2023/12/26 15:39:13;;;;;;;6.20;5.70;;;;;;;;;;5077668;28;20452;-80
2023/12/26 15:41:39;;;;;;;4.80;4.20;;;;;;;;;;5076656;28;20541;-80
2023/12/26 15:44:07;;;;;;;4.47;4.10;;;;;;;;;;5075065;28;20472;-81
2023/12/26 15:46:34;;;;;;;42.10;25.33;;;;;;;;;;5078185;28;20436;-81
2023/12/26 15:49:01;;;;;;;8.47;7.63;;;;;;;;;;5077201;28;20482;-81
2023/12/26 15:51:27;;;;;;;5.67;4.83;;;;;;;;;;5077291;28;20452;-81
2023/12/26 15:53:54;;;;;;;7.30;6.60;;;;;;;;;;5076875;28;20459;-81
2023/12/26 15:56:23;;;;;;;5.90;4.70;;;;;;;;;;5077900;28;20444;-81
2023/12/26 15:58:50;;;;;;;7.20;6.43;;;;;;;;;;5077634;28;20486;-81
2023/12/26 16:01:19;;;;;;;5.70;5.17;;;;;;;;;;5071949;28;21043;-81
2023/12/26 16:03:46;;;;;;;6.17;5.70;;;;;;;;;;5072100;28;21155;-81
2023/12/26 16:06:19;;;;;;;8.93;6.80;;;;;;;;;;5060166;28;20499;-81
2023/12/26 16:08:46;;;;;;;8.23;5.90;;;;;;;;;;5052721;28;20445;-81
2023/12/26 16:11:13;;;;;;;11.57;5.43;;;;;;;;;;5050359;28;20489;-81
2023/12/26 16:13:41;;;;;;;8.50;6.40;;;;;;;;;;5056538;28;20469;-81
2023/12/26 16:16:08;;;;;;;8.10;5.70;;;;;;;;;;5056981;28;20449;-80
2023/12/26 16:18:35;;;;;;;6.80;6.40;;;;;;;;;;5057096;28;20441;-80
2023/12/26 16:21:02;;;;;;;6.10;5.60;;;;;;;;;;5056178;28;20842;-80
2023/12/26 16:23:28;;;;;;;7.63;5.80;;;;;;;;;;5051132;28;20480;-80
2023/12/26 16:25:55;;;;;;;7.83;7.20;;;;;;;;;;5051016;28;20796;-81
2023/12/26 16:28:22;;;;;;;6.53;6.00;;;;;;;;;;5054173;28;20453;-80
2023/12/26 16:30:50;;;;;;;9.33;7.13;;;;;;;;;;5056778;28;20819;-80
2023/12/26 16:33:16;;;;;;;7.40;6.90;;;;;;;;;;5051280;28;20445;-81
2023/12/26 16:35:43;;;;;;;5.90;5.50;;;;;;;;;;5051649;28;20464;-81
2023/12/26 16:38:09;;;;;;;6.27;5.73;;;;;;;;;;5056586;28;20457;-81
2023/12/26 16:40:36;;;;;;;10.30;6.13;;;;;;;;;;5056865;28;20457;-81
2023/12/26 16:43:02;;;;;;;9.30;8.10;;;;;;;;;;5056501;28;20488;-81
2023/12/26 16:45:29;;;;;;;5.93;5.40;;;;;;;;;;5056364;28;20520;-80
2023/12/26 16:47:58;;;;;;;6.43;5.93;;;;;;;;;;5056294;28;20526;-80
2023/12/26 16:50:25;;;;;;;10.47;9.57;;;;;;;;;;5056120;28;20962;-81
2023/12/26 16:52:51;;;;;;;11.20;9.97;;;;;;;;;;5048592;28;20450;-81
2023/12/26 16:55:18;;;;;;;12.27;11.33;;;;;;;;;;5054929;28;20579;-80
2023/12/26 16:57:44;;;;;;;12.30;11.40;;;;;;;;;;5048247;28;20706;-81
2023/12/26 17:00:11;;;;;;;11.00;10.00;;;;;;;;;;5054668;28;20456;-80
2023/12/26 17:02:38;;;;;;;9.20;8.60;;;;;;;;;;5056382;28;20512;-81
2023/12/26 17:05:07;;;;;;;9.23;8.50;;;;;;;;;;5058758;28;21312;-81
2023/12/26 17:07:34;;;;;;;7.20;6.50;;;;;;;;;;5075464;28;20491;-81
2023/12/26 17:10:01;;;;;;;7.73;5.13;;;;;;;;;;5075614;28;20483;-81
2023/12/26 17:12:27;;;;;;;6.70;5.23;;;;;;;;;;5076538;28;20463;-80
2023/12/26 17:14:53;;;;;;;17.97;7.17;;;;;;;;;;5074824;28;20452;-81
2023/12/26 17:17:20;;;;;;;5.73;5.20;;;;;;;;;;5076133;28;20866;-81
2023/12/26 17:19:46;;;;;;;4.27;3.87;;;;;;;;;;5074637;28;20452;-80
2023/12/26 17:22:14;;;;;;;11.97;4.57;;;;;;;;;;5069458;28;20488;-81
2023/12/26 17:25:08;;;;;;;6.07;5.57;;;;;;;;;;5076336;28;20460;-80
2023/12/26 17:27:40;;;;;;;15.50;7.00;;;;;;;;;;5067555;28;20452;-80